Overton's Hourly Summary for Sunday, April 16, 2017
Hour Temp
(f)
RH
(%)
Solar Rad.
(MJ/m2)
Rainfall
(in)
Wind
(mph)
4/16/2017 12:00 AM 68 85 0 0 1.88
4/16/2017 1:00 AM 67 85 0 0 3.78
4/16/2017 2:00 AM 66 90 0 0 3.62
4/16/2017 3:00 AM 65 93 0 0 3.34
4/16/2017 4:00 AM 66 94 0 0 5.59
4/16/2017 5:00 AM 66 92 0 0 6.18
4/16/2017 6:00 AM 66 94 0 0 1.92
4/16/2017 7:00 AM 66 93 0.01 0 1.32
4/16/2017 8:00 AM 67 89 0.25 0 0.16
4/16/2017 9:00 AM 69 90 0.46 0 1.49
4/16/2017 10:00 AM 71 82 0.91 0 2.96
4/16/2017 11:00 AM 74 77 1.87 0 5.8
4/16/2017 12:00 PM 77 68 2.27 0 7.01
4/16/2017 1:00 PM 79 65 2.73 0 7.64
4/16/2017 2:00 PM 81 62 2.24 0 4.84
4/16/2017 3:00 PM 81 59 1.7 0 3.11
4/16/2017 4:00 PM 82 61 2.28 0 3.85
4/16/2017 5:00 PM 83 54 1.97 0 3.13
4/16/2017 6:00 PM 82 58 1.34 0 2.91
4/16/2017 7:00 PM 81 67 0.62 0 0.89
4/16/2017 8:00 PM 76 82 0.11 0 0.18
4/16/2017 9:00 PM 74 74 0 0 1.96
4/16/2017 10:00 PM 72 77 0 0 0.73
4/16/2017 11:00 PM 70 80 0 0 2.66
Data Summary 72 77 18.76 0.00 3.21